WJA2045 MMPR-CYUL
Flight info
| Callsign | WJA2045 |
|---|---|
| Flight time | N/A |
| Altitude | 37000 |
| Route | MMPR PR551 PR 552 BOBDI LIBAR NOVUL NLD KMMBR LURIC ELD MEMFS SIDAE WWSHR SANIN BEMOG VIDGO PIGNA TIDAS LONNA OMEKI VOLAX CYUL |
| Aircraft | B737/M-V/N |
Departure
| Time | N/A |
|---|---|
| Airport | Puerto Vallarta International Airport (MMPR) |
Arrival
| Time | 2026-05-05 07:22 |
|---|---|
| Airport | Montreal / Pierre Elliott Trudeau International Airport (CYUL) |
| Time | Latitude | Longitude | Altitude | Speed | Heading |
|---|---|---|---|---|---|
| 2026-05-05 05:18 | 36.28687 | -88.82454 | 37057 ft | 472 kts | 27° |
| 2026-05-05 05:19 | 36.31280 | -88.80056 | 37027 ft | 474 kts | 27° |
| 2026-05-05 05:19 | 36.36586 | -88.75085 | 37019 ft | 476 kts | 27° |
| 2026-05-05 05:20 | 36.41739 | -88.70246 | 37010 ft | 477 kts | 27° |
| 2026-05-05 05:20 | 36.46812 | -88.65490 | 37000 ft | 476 kts | 27° |
| 2026-05-05 05:21 | 36.51937 | -88.60687 | 37021 ft | 474 kts | 27° |
| 2026-05-05 05:21 | 36.56971 | -88.55967 | 37013 ft | 474 kts | 27° |
| 2026-05-05 05:22 | 36.62231 | -88.51024 | 37030 ft | 474 kts | 27° |
| 2026-05-05 05:22 | 36.67473 | -88.46092 | 37027 ft | 474 kts | 27° |
| 2026-05-05 05:23 | 36.72444 | -88.41404 | 37033 ft | 474 kts | 27° |
| 2026-05-05 05:23 | 36.77728 | -88.36413 | 37022 ft | 475 kts | 28° |
| 2026-05-05 05:24 | 36.82940 | -88.31480 | 37021 ft | 475 kts | 28° |
| 2026-05-05 05:24 | 36.88245 | -88.26451 | 36995 ft | 475 kts | 28° |
| 2026-05-05 05:25 | 36.93470 | -88.21488 | 36990 ft | 475 kts | 28° |
| 2026-05-05 05:25 | 36.98739 | -88.16475 | 36969 ft | 475 kts | 28° |
| 2026-05-05 05:26 | 37.04026 | -88.11437 | 36961 ft | 475 kts | 28° |
| 2026-05-05 05:26 | 37.09254 | -88.06444 | 36978 ft | 475 kts | 28° |
| 2026-05-05 05:27 | 37.14458 | -88.01467 | 36966 ft | 475 kts | 28° |
| 2026-05-05 05:27 | 37.22307 | -87.93941 | 36964 ft | 475 kts | 28° |
| 2026-05-05 05:28 | 37.27503 | -87.88948 | 36958 ft | 475 kts | 28° |
| 2026-05-05 05:28 | 37.32755 | -87.83886 | 36964 ft | 475 kts | 28° |
| 2026-05-05 05:29 | 37.37595 | -87.78317 | 36972 ft | 486 kts | 37° |
| 2026-05-05 05:29 | 37.42184 | -87.72024 | 36922 ft | 490 kts | 39° |
| 2026-05-05 05:30 | 37.46398 | -87.66182 | 36994 ft | 487 kts | 38° |
| 2026-05-05 05:30 | 37.51037 | -87.59921 | 36987 ft | 486 kts | 37° |
| 2026-05-05 05:31 | 37.55657 | -87.53780 | 36932 ft | 486 kts | 37° |
| 2026-05-05 05:31 | 37.60213 | -87.47738 | 36937 ft | 487 kts | 37° |
| 2026-05-05 05:32 | 37.64824 | -87.41603 | 37000 ft | 486 kts | 37° |
| 2026-05-05 05:32 | 37.69440 | -87.35443 | 36984 ft | 486 kts | 37° |
| 2026-05-05 05:33 | 37.74050 | -87.29274 | 36932 ft | 487 kts | 38° |
| 2026-05-05 05:33 | 37.78702 | -87.23034 | 36960 ft | 487 kts | 38° |
| 2026-05-05 05:34 | 37.83327 | -87.16821 | 37009 ft | 485 kts | 38° |
| 2026-05-05 05:34 | 37.87918 | -87.10643 | 36997 ft | 485 kts | 38° |
| 2026-05-05 05:35 | 37.92549 | -87.04399 | 36945 ft | 486 kts | 38° |
| 2026-05-05 05:35 | 37.97164 | -86.98164 | 36924 ft | 486 kts | 38° |
| 2026-05-05 05:36 | 38.01614 | -86.92138 | 36944 ft | 486 kts | 38° |
| 2026-05-05 05:36 | 38.06255 | -86.85843 | 36972 ft | 485 kts | 38° |
| 2026-05-05 05:37 | 38.10866 | -86.79575 | 36983 ft | 485 kts | 38° |
| 2026-05-05 05:37 | 38.15453 | -86.73330 | 36996 ft | 485 kts | 39° |
| 2026-05-05 05:38 | 38.20068 | -86.67034 | 36962 ft | 486 kts | 39° |
| 2026-05-05 05:38 | 38.24680 | -86.60729 | 36960 ft | 487 kts | 39° |
| 2026-05-05 05:39 | 38.29289 | -86.54415 | 36936 ft | 488 kts | 39° |
| 2026-05-05 05:39 | 38.33827 | -86.48185 | 36931 ft | 489 kts | 39° |
| 2026-05-05 05:40 | 38.38287 | -86.42051 | 36943 ft | 489 kts | 39° |
| 2026-05-05 05:40 | 38.42893 | -86.35701 | 36957 ft | 490 kts | 39° |
| 2026-05-05 05:41 | 38.47524 | -86.29306 | 36949 ft | 490 kts | 40° |
| 2026-05-05 05:41 | 38.51832 | -86.23344 | 36935 ft | 491 kts | 40° |
| 2026-05-05 05:42 | 38.56361 | -86.17066 | 36848 ft | 491 kts | 40° |
| 2026-05-05 05:42 | 38.60953 | -86.10687 | 36939 ft | 490 kts | 40° |
| 2026-05-05 05:43 | 38.65488 | -86.04376 | 36920 ft | 491 kts | 41° |
| 2026-05-05 05:43 | 38.70099 | -85.97945 | 36924 ft | 492 kts | 41° |
| 2026-05-05 05:44 | 38.74634 | -85.91606 | 36940 ft | 491 kts | 41° |
| 2026-05-05 05:44 | 38.79270 | -85.85112 | 36921 ft | 492 kts | 41° |
| 2026-05-05 05:45 | 38.83867 | -85.78659 | 36947 ft | 492 kts | 41° |
| 2026-05-05 05:45 | 38.88394 | -85.72294 | 36934 ft | 492 kts | 41° |
| 2026-05-05 05:46 | 38.92972 | -85.65842 | 36932 ft | 492 kts | 41° |
| 2026-05-05 05:46 | 38.97588 | -85.59325 | 36953 ft | 492 kts | 42° |
| 2026-05-05 05:47 | 39.02090 | -85.52954 | 36934 ft | 492 kts | 42° |
| 2026-05-05 05:47 | 39.06700 | -85.46417 | 36896 ft | 493 kts | 42° |
| 2026-05-05 05:48 | 39.11293 | -85.39889 | 36890 ft | 493 kts | 42° |
| 2026-05-05 05:48 | 39.15916 | -85.33306 | 36925 ft | 492 kts | 43° |
| 2026-05-05 05:49 | 39.20375 | -85.26943 | 36928 ft | 491 kts | 43° |
| 2026-05-05 05:49 | 39.24959 | -85.20390 | 36896 ft | 492 kts | 43° |
| 2026-05-05 05:50 | 39.29547 | -85.13816 | 36888 ft | 493 kts | 43° |
| 2026-05-05 05:50 | 39.34138 | -85.07223 | 36904 ft | 493 kts | 43° |
| 2026-05-05 05:51 | 39.38688 | -85.00675 | 36922 ft | 493 kts | 43° |
| 2026-05-05 05:51 | 39.43261 | -84.94081 | 36923 ft | 494 kts | 44° |
| 2026-05-05 05:52 | 39.47818 | -84.87496 | 36906 ft | 495 kts | 44° |
| 2026-05-05 05:52 | 39.52408 | -84.80848 | 36913 ft | 495 kts | 44° |
| 2026-05-05 05:53 | 39.57005 | -84.74177 | 36914 ft | 496 kts | 44° |
| 2026-05-05 05:53 | 39.61610 | -84.67479 | 36905 ft | 496 kts | 44° |
| 2026-05-05 05:54 | 39.66162 | -84.60843 | 36912 ft | 497 kts | 44° |
| 2026-05-05 05:54 | 39.70767 | -84.54117 | 36902 ft | 498 kts | 44° |
| 2026-05-05 05:55 | 39.74582 | -84.48534 | 36904 ft | 498 kts | 44° |
| 2026-05-05 05:55 | 39.79940 | -84.40673 | 36896 ft | 498 kts | 45° |
| 2026-05-05 05:56 | 39.83775 | -84.35036 | 36890 ft | 499 kts | 45° |
| 2026-05-05 05:56 | 39.88367 | -84.28273 | 36894 ft | 499 kts | 45° |
| 2026-05-05 05:57 | 39.92963 | -84.21488 | 36894 ft | 500 kts | 45° |
| 2026-05-05 05:57 | 39.97563 | -84.14682 | 36894 ft | 500 kts | 45° |
| 2026-05-05 05:58 | 40.02148 | -84.07882 | 36895 ft | 500 kts | 45° |
| 2026-05-05 05:58 | 40.06745 | -84.01051 | 36899 ft | 501 kts | 45° |
| 2026-05-05 05:59 | 40.11283 | -83.94292 | 36874 ft | 501 kts | 45° |
| 2026-05-05 05:59 | 40.15856 | -83.87466 | 36894 ft | 500 kts | 45° |
| 2026-05-05 06:00 | 40.20419 | -83.80640 | 36864 ft | 500 kts | 45° |
| 2026-05-05 06:00 | 40.24991 | -83.73785 | 36895 ft | 500 kts | 45° |
| 2026-05-05 06:01 | 40.29478 | -83.67043 | 36868 ft | 500 kts | 46° |
| 2026-05-05 06:01 | 40.34035 | -83.60180 | 36875 ft | 501 kts | 46° |
| 2026-05-05 06:02 | 40.38608 | -83.53278 | 36882 ft | 500 kts | 46° |
| 2026-05-05 06:02 | 40.43150 | -83.46407 | 36880 ft | 501 kts | 46° |
| 2026-05-05 06:03 | 40.47690 | -83.39522 | 36866 ft | 501 kts | 46° |
| 2026-05-05 06:03 | 40.52248 | -83.32591 | 36856 ft | 501 kts | 46° |
| 2026-05-05 06:04 | 40.56795 | -83.25669 | 36870 ft | 502 kts | 46° |
| 2026-05-05 06:04 | 40.61354 | -83.18713 | 36857 ft | 502 kts | 46° |
| 2026-05-05 06:05 | 40.65724 | -83.12026 | 36846 ft | 501 kts | 46° |
| 2026-05-05 06:05 | 40.70252 | -83.05082 | 36867 ft | 500 kts | 47° |
| 2026-05-05 06:06 | 40.74784 | -82.98118 | 36851 ft | 501 kts | 47° |
| 2026-05-05 06:06 | 40.79309 | -82.91148 | 36861 ft | 501 kts | 47° |
| 2026-05-05 06:07 | 40.83790 | -82.84230 | 36875 ft | 501 kts | 47° |
| 2026-05-05 06:07 | 40.88323 | -82.77214 | 36871 ft | 502 kts | 47° |
| 2026-05-05 06:08 | 40.92840 | -82.70208 | 36871 ft | 502 kts | 47° |
| 2026-05-05 06:08 | 40.97361 | -82.63180 | 36877 ft | 502 kts | 47° |
| 2026-05-05 06:09 | 41.01891 | -82.56122 | 36865 ft | 503 kts | 47° |
| 2026-05-05 06:09 | 41.06333 | -82.49184 | 36862 ft | 503 kts | 47° |
| 2026-05-05 06:10 | 41.10855 | -82.42105 | 36858 ft | 503 kts | 47° |
| 2026-05-05 06:10 | 41.15354 | -82.35046 | 36836 ft | 504 kts | 47° |
| 2026-05-05 06:11 | 41.19885 | -82.27918 | 36837 ft | 504 kts | 47° |
| 2026-05-05 06:11 | 41.24362 | -82.20861 | 36832 ft | 504 kts | 47° |
| 2026-05-05 06:12 | 41.28700 | -82.14005 | 36825 ft | 504 kts | 47° |
| 2026-05-05 06:12 | 41.33164 | -82.06935 | 36831 ft | 503 kts | 47° |
| 2026-05-05 06:13 | 41.37688 | -81.99793 | 36820 ft | 503 kts | 47° |
| 2026-05-05 06:13 | 41.42231 | -81.92679 | 36817 ft | 503 kts | 47° |
| 2026-05-05 06:14 | 41.46736 | -81.85615 | 36819 ft | 503 kts | 47° |
| 2026-05-05 06:14 | 41.51128 | -81.78700 | 36808 ft | 503 kts | 47° |
| 2026-05-05 06:15 | 41.55609 | -81.71620 | 36807 ft | 503 kts | 47° |
| 2026-05-05 06:15 | 41.60127 | -81.64462 | 36813 ft | 503 kts | 47° |
| 2026-05-05 06:16 | 41.64594 | -81.57370 | 36848 ft | 504 kts | 47° |
| 2026-05-05 06:16 | 41.69099 | -81.50200 | 36807 ft | 504 kts | 47° |
| 2026-05-05 06:17 | 41.73614 | -81.42998 | 36816 ft | 504 kts | 47° |
| 2026-05-05 06:17 | 41.78106 | -81.35815 | 36809 ft | 505 kts | 47° |
| 2026-05-05 06:18 | 41.82624 | -81.28574 | 36810 ft | 505 kts | 47° |
| 2026-05-05 06:18 | 41.87138 | -81.21321 | 36820 ft | 505 kts | 47° |
| 2026-05-05 06:19 | 41.91611 | -81.14117 | 36817 ft | 506 kts | 47° |
| 2026-05-05 06:19 | 41.96124 | -81.06831 | 36825 ft | 506 kts | 47° |
| 2026-05-05 06:20 | 42.00608 | -80.99572 | 36828 ft | 506 kts | 47° |
| 2026-05-05 06:20 | 42.05118 | -80.92255 | 36827 ft | 506 kts | 48° |
| 2026-05-05 06:21 | 42.09581 | -80.84996 | 36849 ft | 507 kts | 48° |
| 2026-05-05 06:21 | 42.14074 | -80.77672 | 36860 ft | 504 kts | 48° |
| 2026-05-05 06:22 | 42.18565 | -80.70331 | 36830 ft | 506 kts | 48° |
| 2026-05-05 06:22 | 42.23052 | -80.62980 | 36793 ft | 506 kts | 48° |
| 2026-05-05 06:23 | 42.27487 | -80.55696 | 36789 ft | 507 kts | 48° |
| 2026-05-05 06:23 | 42.31952 | -80.48344 | 36797 ft | 507 kts | 48° |
| 2026-05-05 06:24 | 42.36433 | -80.40948 | 36820 ft | 506 kts | 48° |
| 2026-05-05 06:24 | 42.40883 | -80.33584 | 36814 ft | 506 kts | 48° |
| 2026-05-05 06:25 | 42.45270 | -80.26308 | 36814 ft | 506 kts | 48° |
| 2026-05-05 06:25 | 42.49717 | -80.18913 | 36787 ft | 506 kts | 48° |
| 2026-05-05 06:26 | 42.54157 | -80.11511 | 36785 ft | 507 kts | 48° |
| 2026-05-05 06:26 | 42.58614 | -80.04063 | 36802 ft | 506 kts | 48° |
| 2026-05-05 06:27 | 42.65231 | -79.92970 | 36805 ft | 506 kts | 48° |
| 2026-05-05 06:28 | 42.69659 | -79.85523 | 36791 ft | 507 kts | 48° |
| 2026-05-05 06:28 | 42.74066 | -79.78093 | 36798 ft | 506 kts | 48° |
| 2026-05-05 06:29 | 42.78486 | -79.70624 | 36782 ft | 507 kts | 48° |
| 2026-05-05 06:29 | 42.82900 | -79.63145 | 36788 ft | 506 kts | 48° |
| 2026-05-05 06:30 | 42.87051 | -79.56093 | 36788 ft | 506 kts | 48° |
| 2026-05-05 06:30 | 42.90698 | -79.49885 | 36773 ft | 506 kts | 48° |
| 2026-05-05 06:31 | 42.95641 | -79.41449 | 36774 ft | 506 kts | 48° |
| 2026-05-05 06:31 | 42.99928 | -79.34113 | 36778 ft | 507 kts | 48° |
| 2026-05-05 06:32 | 43.04218 | -79.26753 | 36772 ft | 507 kts | 48° |
| 2026-05-05 06:32 | 43.08271 | -79.19784 | 36786 ft | 507 kts | 48° |
| 2026-05-05 06:33 | 43.12480 | -79.12527 | 36792 ft | 508 kts | 48° |
| 2026-05-05 06:33 | 43.16841 | -79.04992 | 36789 ft | 508 kts | 48° |
| 2026-05-05 06:34 | 43.21138 | -78.97546 | 36789 ft | 508 kts | 49° |
| 2026-05-05 06:34 | 43.25519 | -78.89937 | 36779 ft | 509 kts | 49° |
| 2026-05-05 06:35 | 43.29865 | -78.82369 | 36779 ft | 509 kts | 49° |
| 2026-05-05 06:35 | 43.34220 | -78.74765 | 36768 ft | 509 kts | 49° |
| 2026-05-05 06:36 | 43.38575 | -78.67141 | 36758 ft | 509 kts | 49° |
| 2026-05-05 06:36 | 43.42938 | -78.59484 | 36757 ft | 509 kts | 49° |
| 2026-05-05 06:37 | 43.47294 | -78.51818 | 36744 ft | 509 kts | 49° |
| 2026-05-05 06:37 | 43.51659 | -78.44117 | 36753 ft | 509 kts | 49° |
| 2026-05-05 06:38 | 43.56030 | -78.36385 | 36744 ft | 509 kts | 49° |
| 2026-05-05 06:38 | 43.60357 | -78.28711 | 36730 ft | 509 kts | 49° |
| 2026-05-05 06:39 | 43.64691 | -78.21003 | 36734 ft | 509 kts | 49° |
| 2026-05-05 06:39 | 43.69042 | -78.13245 | 36746 ft | 509 kts | 49° |
| 2026-05-05 06:40 | 43.73363 | -78.05521 | 36730 ft | 510 kts | 49° |
| 2026-05-05 06:40 | 43.77700 | -77.97745 | 36749 ft | 510 kts | 49° |
| 2026-05-05 06:41 | 43.81300 | -77.91277 | 36746 ft | 510 kts | 49° |
| 2026-05-05 06:41 | 43.85502 | -77.83709 | 36717 ft | 511 kts | 49° |
| 2026-05-05 06:42 | 43.89824 | -77.75901 | 36739 ft | 511 kts | 49° |
| 2026-05-05 06:42 | 43.94152 | -77.68064 | 36803 ft | 510 kts | 49° |
| 2026-05-05 06:43 | 43.98396 | -77.60359 | 36759 ft | 511 kts | 49° |
| 2026-05-05 06:43 | 44.02698 | -77.52524 | 36729 ft | 512 kts | 49° |
| 2026-05-05 06:44 | 44.07007 | -77.44881 | 36709 ft | 510 kts | 45° |
| 2026-05-05 06:44 | 44.12143 | -77.38461 | 36657 ft | 496 kts | 25° |
| 2026-05-05 06:44 | 44.15122 | -77.36181 | 36897 ft | 488 kts | 21° |
| 2026-05-05 06:45 | 44.18169 | -77.34048 | 36769 ft | 491 kts | 20° |
| 2026-05-05 06:45 | 44.24178 | -77.29475 | 36746 ft | 496 kts | 26° |
| 2026-05-05 06:46 | 44.30014 | -77.24284 | 36754 ft | 497 kts | 27° |
| 2026-05-05 06:46 | 44.35835 | -77.19032 | 36745 ft | 498 kts | 27° |
| 2026-05-05 06:47 | 44.41635 | -77.13913 | 36739 ft | 498 kts | 26° |
| 2026-05-05 06:47 | 44.47530 | -77.08774 | 36736 ft | 498 kts | 26° |
| 2026-05-05 06:48 | 44.53309 | -77.03736 | 36740 ft | 499 kts | 26° |
| 2026-05-05 06:48 | 44.59211 | -76.98572 | 36737 ft | 499 kts | 26° |
| 2026-05-05 06:49 | 44.65076 | -76.93421 | 36736 ft | 500 kts | 26° |
| 2026-05-05 06:49 | 44.70942 | -76.88256 | 36733 ft | 501 kts | 26° |
| 2026-05-05 06:50 | 44.76735 | -76.83142 | 36640 ft | 495 kts | 26° |
| 2026-05-05 06:50 | 44.79565 | -76.80633 | 36181 ft | 489 kts | 26° |
| 2026-05-05 06:50 | 44.82411 | -76.78112 | 35324 ft | 493 kts | 26° |
| 2026-05-05 06:50 | 44.85269 | -76.75584 | 34372 ft | 498 kts | 26° |
| 2026-05-05 06:51 | 44.88229 | -76.72966 | 33326 ft | 503 kts | 26° |
| 2026-05-05 06:51 | 44.91218 | -76.70317 | 32174 ft | 507 kts | 26° |
| 2026-05-05 06:51 | 44.94214 | -76.67659 | 30874 ft | 513 kts | 26° |
| 2026-05-05 06:51 | 44.97275 | -76.64936 | 29663 ft | 517 kts | 27° |
| 2026-05-05 06:52 | 45.00319 | -76.62221 | 28384 ft | 517 kts | 27° |
| 2026-05-05 06:52 | 45.03361 | -76.59502 | 27046 ft | 518 kts | 27° |
| 2026-05-05 06:52 | 45.06367 | -76.56812 | 25675 ft | 520 kts | 27° |
| 2026-05-05 06:52 | 45.09453 | -76.54050 | 24435 ft | 521 kts | 27° |
| 2026-05-05 06:53 | 45.12510 | -76.51307 | 23548 ft | 515 kts | 28° |
| 2026-05-05 06:53 | 45.15510 | -76.48606 | 22721 ft | 506 kts | 28° |
| 2026-05-05 06:53 | 45.18458 | -76.45948 | 21803 ft | 499 kts | 28° |
| 2026-05-05 06:53 | 45.21370 | -76.43323 | 20834 ft | 493 kts | 28° |
| 2026-05-05 06:54 | 45.24226 | -76.40751 | 20322 ft | 492 kts | 28° |
| 2026-05-05 06:54 | 45.27041 | -76.38217 | 20286 ft | 494 kts | 28° |
| 2026-05-05 06:54 | 45.29941 | -76.35602 | 20133 ft | 492 kts | 28° |
| 2026-05-05 06:54 | 45.32794 | -76.33025 | 20087 ft | 491 kts | 28° |
| 2026-05-05 06:55 | 45.35660 | -76.30430 | 20086 ft | 490 kts | 28° |
| 2026-05-05 06:55 | 45.38556 | -76.27806 | 20084 ft | 490 kts | 28° |
| 2026-05-05 06:55 | 45.41422 | -76.25205 | 20076 ft | 490 kts | 28° |
| 2026-05-05 06:55 | 45.44278 | -76.22611 | 20077 ft | 490 kts | 28° |
| 2026-05-05 06:56 | 45.47159 | -76.19990 | 20074 ft | 490 kts | 28° |
| 2026-05-05 06:56 | 45.50032 | -76.17373 | 20074 ft | 490 kts | 28° |
| 2026-05-05 06:56 | 45.52917 | -76.14743 | 20067 ft | 490 kts | 28° |
| 2026-05-05 06:56 | 45.55781 | -76.12128 | 20067 ft | 490 kts | 28° |
| 2026-05-05 06:57 | 45.58666 | -76.09491 | 20068 ft | 488 kts | 28° |
| 2026-05-05 06:57 | 45.61454 | -76.06933 | 20057 ft | 470 kts | 28° |
| 2026-05-05 06:57 | 45.64170 | -76.04430 | 20051 ft | 451 kts | 28° |
| 2026-05-05 06:57 | 45.66758 | -76.02045 | 20052 ft | 443 kts | 28° |
| 2026-05-05 06:58 | 45.69361 | -75.99656 | 20067 ft | 442 kts | 28° |
| 2026-05-05 06:58 | 45.71912 | -75.97320 | 20073 ft | 442 kts | 28° |
| 2026-05-05 06:58 | 45.74518 | -75.94931 | 20075 ft | 443 kts | 28° |
| 2026-05-05 06:58 | 45.77113 | -75.92547 | 20069 ft | 443 kts | 28° |
| 2026-05-05 06:59 | 45.79715 | -75.90151 | 20074 ft | 443 kts | 28° |
| 2026-05-05 06:59 | 45.82297 | -75.87767 | 20076 ft | 444 kts | 28° |
| 2026-05-05 06:59 | 45.84900 | -75.85361 | 20071 ft | 444 kts | 28° |
| 2026-05-05 06:59 | 45.87505 | -75.82949 | 20067 ft | 444 kts | 28° |
| 2026-05-05 07:00 | 45.90075 | -75.80566 | 20068 ft | 443 kts | 28° |
| 2026-05-05 07:00 | 45.92655 | -75.78172 | 20076 ft | 443 kts | 28° |
| 2026-05-05 07:00 | 45.95230 | -75.75781 | 20065 ft | 442 kts | 28° |
| 2026-05-05 07:00 | 45.97873 | -75.73325 | 20081 ft | 452 kts | 28° |
| 2026-05-05 07:01 | 46.00533 | -75.70856 | 20078 ft | 466 kts | 28° |
| 2026-05-05 07:01 | 46.03287 | -75.68293 | 20079 ft | 478 kts | 28° |
| 2026-05-05 07:01 | 46.06104 | -75.65664 | 20073 ft | 488 kts | 29° |
| 2026-05-05 07:01 | 46.08973 | -75.62957 | 20071 ft | 495 kts | 32° |
| 2026-05-05 07:02 | 46.11346 | -75.59364 | 19997 ft | 505 kts | 57° |
| 2026-05-05 07:02 | 46.12884 | -75.54809 | 20111 ft | 506 kts | 68° |
| 2026-05-05 07:02 | 46.14002 | -75.49975 | 20043 ft | 505 kts | 78° |
| 2026-05-05 07:02 | 46.14237 | -75.44978 | 20084 ft | 500 kts | 97° |
| 2026-05-05 07:03 | 46.13776 | -75.40022 | 20085 ft | 501 kts | 103° |
| 2026-05-05 07:03 | 46.13114 | -75.35155 | 20079 ft | 498 kts | 105° |
| 2026-05-05 07:03 | 46.12416 | -75.30296 | 20075 ft | 499 kts | 104° |
| 2026-05-05 07:03 | 46.11772 | -75.25350 | 20083 ft | 499 kts | 102° |
| 2026-05-05 07:04 | 46.11286 | -75.20368 | 20078 ft | 501 kts | 99° |
| 2026-05-05 07:04 | 46.10908 | -75.15452 | 20090 ft | 500 kts | 98° |
| 2026-05-05 07:04 | 46.10534 | -75.10428 | 20079 ft | 500 kts | 99° |
| 2026-05-05 07:04 | 46.10131 | -75.05454 | 19954 ft | 499 kts | 99° |
| 2026-05-05 07:05 | 46.09693 | -75.00543 | 19859 ft | 498 kts | 100° |
| 2026-05-05 07:05 | 46.09215 | -74.95544 | 19683 ft | 498 kts | 101° |
| 2026-05-05 07:05 | 46.08726 | -74.90618 | 19483 ft | 494 kts | 101° |
| 2026-05-05 07:05 | 46.08240 | -74.85782 | 19291 ft | 493 kts | 101° |
| 2026-05-05 07:06 | 46.07747 | -74.80880 | 19097 ft | 491 kts | 101° |
| 2026-05-05 07:06 | 46.07258 | -74.76004 | 18911 ft | 490 kts | 101° |
| 2026-05-05 07:06 | 46.06774 | -74.71157 | 18711 ft | 489 kts | 101° |
| 2026-05-05 07:06 | 46.06295 | -74.66369 | 18522 ft | 487 kts | 101° |
| 2026-05-05 07:07 | 46.05814 | -74.61571 | 18248 ft | 486 kts | 101° |
| 2026-05-05 07:07 | 46.05325 | -74.56813 | 17868 ft | 481 kts | 102° |
| 2026-05-05 07:07 | 46.04633 | -74.52106 | 17450 ft | 475 kts | 109° |
| 2026-05-05 07:07 | 46.03328 | -74.47821 | 16935 ft | 460 kts | 130° |
| 2026-05-05 07:08 | 46.01131 | -74.44645 | 16591 ft | 440 kts | 152° |
| 2026-05-05 07:08 | 45.98466 | -74.42555 | 16285 ft | 433 kts | 159° |
| 2026-05-05 07:08 | 45.95881 | -74.40294 | 15719 ft | 441 kts | 146° |
| 2026-05-05 07:08 | 45.93708 | -74.37288 | 15348 ft | 432 kts | 139° |
| 2026-05-05 07:09 | 45.91689 | -74.34240 | 14822 ft | 418 kts | 140° |
| 2026-05-05 07:09 | 45.89548 | -74.31478 | 14264 ft | 404 kts | 147° |
| 2026-05-05 07:09 | 45.87361 | -74.29098 | 13755 ft | 393 kts | 149° |
| 2026-05-05 07:09 | 45.85236 | -74.26861 | 13214 ft | 386 kts | 149° |
| 2026-05-05 07:10 | 45.83124 | -74.24565 | 12634 ft | 380 kts | 148° |
| 2026-05-05 07:10 | 45.81055 | -74.22208 | 12037 ft | 374 kts | 147° |
| 2026-05-05 07:10 | 45.79073 | -74.19895 | 11493 ft | 369 kts | 146° |
| 2026-05-05 07:10 | 45.77105 | -74.17578 | 10935 ft | 365 kts | 144° |
| 2026-05-05 07:11 | 45.75347 | -74.14903 | 10323 ft | 371 kts | 129° |
| 2026-05-05 07:11 | 45.74270 | -74.11543 | 9816 ft | 375 kts | 110° |
| 2026-05-05 07:11 | 45.73656 | -74.08213 | 9342 ft | 372 kts | 108° |
| 2026-05-05 07:11 | 45.73257 | -74.05860 | 8976 ft | 369 kts | 108° |
| 2026-05-05 07:13 | 45.72711 | -74.02895 | 8665 ft | 359 kts | 110° |
| 2026-05-05 07:14 | 45.72010 | -73.99655 | 8306 ft | 350 kts | 113° |
| 2026-05-05 07:14 | 45.71374 | -73.96891 | 8003 ft | 343 kts | 113° |
| 2026-05-05 07:14 | 45.70635 | -73.93690 | 7643 ft | 337 kts | 113° |
| 2026-05-05 07:14 | 45.69919 | -73.90535 | 7286 ft | 331 kts | 113° |
| 2026-05-05 07:15 | 45.69306 | -73.87796 | 6970 ft | 326 kts | 113° |
| 2026-05-05 07:15 | 45.68631 | -73.84744 | 6648 ft | 321 kts | 113° |
| 2026-05-05 07:15 | 45.68448 | -73.83914 | 6542 ft | 320 kts | 113° |
| 2026-05-05 07:15 | 45.67943 | -73.81620 | 6278 ft | 317 kts | 114° |
| 2026-05-05 07:16 | 45.67331 | -73.78833 | 5955 ft | 313 kts | 113° |
| 2026-05-05 07:16 | 45.66708 | -73.75996 | 5622 ft | 309 kts | 114° |
| 2026-05-05 07:16 | 45.66067 | -73.73080 | 5276 ft | 306 kts | 114° |
| 2026-05-05 07:16 | 45.65431 | -73.70190 | 5005 ft | 300 kts | 114° |
| 2026-05-05 07:17 | 45.64824 | -73.67352 | 5014 ft | 297 kts | 111° |
| 2026-05-05 07:17 | 45.64253 | -73.64569 | 4987 ft | 293 kts | 120° |
| 2026-05-05 07:17 | 45.63168 | -73.62305 | 5003 ft | 267 kts | 146° |
| 2026-05-05 07:17 | 45.62195 | -73.61345 | 4996 ft | 245 kts | 164° |
| 2026-05-05 07:18 | 45.61255 | -73.60901 | 5016 ft | 222 kts | 178° |
| 2026-05-05 07:18 | 45.59802 | -73.60837 | 4840 ft | 199 kts | 197° |
| 2026-05-05 07:18 | 45.58501 | -73.61454 | 4173 ft | 201 kts | 210° |
| 2026-05-05 07:18 | 45.57254 | -73.62430 | 3377 ft | 211 kts | 214° |
| 2026-05-05 07:19 | 45.55976 | -73.63576 | 2579 ft | 218 kts | 217° |
| 2026-05-05 07:19 | 45.54761 | -73.64833 | 1961 ft | 212 kts | 218° |
| 2026-05-05 07:19 | 45.53867 | -73.65890 | 1692 ft | 190 kts | 223° |
| 2026-05-05 07:19 | 45.53106 | -73.66933 | 1577 ft | 158 kts | 225° |
| 2026-05-05 07:20 | 45.52431 | -73.67937 | 1407 ft | 134 kts | 225° |
| 2026-05-05 07:20 | 45.51795 | -73.68881 | 953 ft | 132 kts | 223° |
| 2026-05-05 07:20 | 45.51139 | -73.69786 | 749 ft | 148 kts | 222° |
| 2026-05-05 07:20 | 45.50725 | -73.70393 | 802 ft | 149 kts | 224° |
| 2026-05-05 07:21 | 45.50141 | -73.71213 | 727 ft | 177 kts | 221° |
| 2026-05-05 07:21 | 45.49437 | -73.72162 | 560 ft | 164 kts | 221° |
| 2026-05-05 07:21 | 45.48912 | -73.72858 | 419 ft | 150 kts | 221° |
| 2026-05-05 07:21 | 45.48066 | -73.73948 | 156 ft | 135 kts | 221° |
| 2026-05-05 07:22 | 45.47454 | -73.74741 | 110 ft | 82 kts | 222° |
| 2026-05-05 07:22 | 45.47282 | -73.74931 | 112 ft | 17 kts | 203° |
| 2026-05-05 07:22 | 45.47174 | -73.74974 | 111 ft | 15 kts | 193° |
| 2026-05-05 07:22 | 45.47075 | -73.75000 | 110 ft | 14 kts | 189° |
| 2026-05-05 07:23 | 45.47005 | -73.75017 | 109 ft | 8 kts | 193° |
| 2026-05-05 07:23 | 45.46958 | -73.75032 | 109 ft | 7 kts | 191° |
| 2026-05-05 07:23 | 45.46914 | -73.75035 | 109 ft | 6 kts | 180° |
| 2026-05-05 07:23 | 45.46889 | -73.75036 | 108 ft | 0 kts | 180° |
| 2026-05-05 07:24 | 45.46885 | -73.75036 | 108 ft | 1 kts | 180° |
| 2026-05-05 07:24 | 45.46867 | -73.75036 | 108 ft | 21 kts | 180° |
| 2026-05-05 07:24 | 45.46656 | -73.75032 | 106 ft | 19 kts | 177° |
| 2026-05-05 07:24 | 45.46537 | -73.75018 | 105 ft | 17 kts | 176° |
| 2026-05-05 07:25 | 45.46442 | -73.75011 | 103 ft | 13 kts | 177° |
| 2026-05-05 07:25 | 45.46354 | -73.75005 | 104 ft | 13 kts | 178° |
| 2026-05-05 07:25 | 45.46292 | -73.75004 | 105 ft | 13 kts | 180° |
| 2026-05-05 07:25 | 45.46180 | -73.75005 | 103 ft | 10 kts | 194° |
| 2026-05-05 07:26 | 45.46147 | -73.75093 | 102 ft | 12 kts | 265° |
| 2026-05-05 07:26 | 45.46142 | -73.75179 | 101 ft | 14 kts | 265° |
| 2026-05-05 07:26 | 45.46142 | -73.75293 | 100 ft | 11 kts | 272° |
| 2026-05-05 07:26 | 45.46140 | -73.75398 | 101 ft | 9 kts | 268° |
| 2026-05-05 07:27 | 45.46137 | -73.75499 | 101 ft | 8 kts | 267° |
| 2026-05-05 07:27 | 45.46135 | -73.75548 | 101 ft | 10 kts | 266° |
| 2026-05-05 07:27 | 45.46129 | -73.75712 | 101 ft | 17 kts | 267° |
| 2026-05-05 07:27 | 45.46121 | -73.75875 | 101 ft | 15 kts | 251° |
| 2026-05-05 07:28 | 45.46077 | -73.75964 | 102 ft | 11 kts | 205° |
| 2026-05-05 07:28 | 45.46031 | -73.75961 | 103 ft | 5 kts | 175° |
| 2026-05-05 07:28 | 45.45963 | -73.75956 | 104 ft | 9 kts | 178° |
| 2026-05-05 07:28 | 45.45956 | -73.75955 | 104 ft | 0 kts | 178° |
| 2026-05-05 07:29 | 45.45921 | -73.75931 | 103 ft | 10 kts | 130° |
| 2026-05-05 07:29 | 45.45909 | -73.75886 | 104 ft | 1 kts | 104° |
| 2026-05-05 07:29 | 45.45909 | -73.75885 | 104 ft | 0 kts | 104° |
| 2026-05-05 07:29 | 45.45907 | -73.75878 | 104 ft | 0 kts | 104° |
| 2026-05-05 07:30 | 45.45907 | -73.75876 | 104 ft | 0 kts | 104° |
| 2026-05-05 07:30 | 45.45905 | -73.75864 | 104 ft | 6 kts | 104° |
| 2026-05-05 07:30 | 45.45899 | -73.75834 | 104 ft | 0 kts | 106° |